Página principal
METAR-TAF:

METAR-TAF

Aeroportos :

Dubai, Emirados Árabes Unidos

Aeroporto Internacional de Dubai

latitude: 25-15-10N, longitude: 055-21-52E, altura: 8 m

Observação actual do tempo

O boletim foi feito há 1 hora e 2 minutos, às 19:00 UTC
Vento 6 kt de sul
Temperatura 21°C
Humidade 60%
Pressão 1017 hPa
Visibilidade 10 km ou mais
sem nuvens abaixo de 1500 metros e sem cumulonimbus

METAR: OMDB 121900Z 18006KT CAVOK 21/13 Q1017 NOSIG

Hora: 00:02 (20:02 UTC)

Previsão

O boletim foi feito há 3 horas e 1 minutos, às 17:01 UTC
Previsão válida de 12 às 18 UTC a 14 às 00 UTC
Vento 8 kt de es-sudeste
Visibilidade 10 km ou mais
Nuvens dispersasa uma altura de 4000 ft
Probabilidade 30% :
Temporariamente
de 13 às 07 UTC a 13 às 12 UTC
Vento 15 kt de nordeste com rajadas de 25 kt
Visibilidade: 4000 m
Poeira levantada pelo vento

TAF: OMDB 121701Z 1218/1400 11008KT 9999 SCT040 PROB30 TEMPO 1307/1312 04015G25KT 4000 BLDU

Observações e previsões do tempo de mais de 4000 aeroportos (mensagens METAR e TAF).

As estações disponíveis são os pontos amarelos e vermelhos sobre o mapa.

Mova o rato sobre o mapa para ver o nome da estação.

Depois clique no ponto para visualizar as observações e previsões meteorológicas.

Para alterar o mapa : clique nos botões verdes com uma cruz preta para aumentar o zoom; no botão verde com uma pitada de zoom; ou nas setas verdes para mapas adjacentes.


METAR-TAF: